createdAt,value
2019-04-07T00:02:01.115Z,18.87
2019-04-07T00:04:31.788Z,18.23
2019-04-07T00:07:02.329Z,18.17
2019-04-07T00:09:32.058Z,17.70
2019-04-07T00:12:13.668Z,18.40
2019-04-07T00:14:46.638Z,16.93
2019-04-07T00:17:16.791Z,18.53
2019-04-07T00:19:48.076Z,18.33
2019-04-07T00:22:21.211Z,18.30
2019-04-07T00:24:51.506Z,18.33
2019-04-07T00:27:22.359Z,18.90
2019-04-07T00:29:52.115Z,20.07
2019-04-07T00:32:23.323Z,18.07
2019-04-07T00:34:55.276Z,18.67
2019-04-07T00:37:26.255Z,19.67
2019-04-07T00:40:00.453Z,18.13
2019-04-07T00:42:29.352Z,17.50
2019-04-07T00:45:00.868Z,19.10
2019-04-07T00:47:31.615Z,18.17
2019-04-07T00:50:00.852Z,18.07
2019-04-07T00:52:31.754Z,18.00
2019-04-07T00:55:03.614Z,18.03
2019-04-07T00:57:35.388Z,18.20
2019-04-07T01:00:12.887Z,18.00
2019-04-07T01:02:42.949Z,18.17
2019-04-07T01:05:35.314Z,17.97
2019-04-07T01:07:59.735Z,17.77
2019-04-07T01:10:28.891Z,18.90
2019-04-07T01:12:59.034Z,17.97
2019-04-07T01:15:29.401Z,19.17
2019-04-07T01:17:59.965Z,18.37
2019-04-07T01:20:31.144Z,18.20
2019-04-07T01:23:01.635Z,18.70
2019-04-07T01:25:31.430Z,19.73
2019-04-07T01:28:01.983Z,18.03
2019-04-07T01:30:34.840Z,18.23
2019-04-07T01:33:04.155Z,20.03
2019-04-07T01:35:45.586Z,18.67
2019-04-07T01:38:08.374Z,19.47
2019-04-07T01:40:38.008Z,18.37
2019-04-07T01:43:10.672Z,19.83
2019-04-07T01:45:57.372Z,19.20
2019-04-07T01:48:44.738Z,19.30
2019-04-07T01:51:17.063Z,20.80
2019-04-07T01:53:47.313Z,18.37
2019-04-07T01:56:26.478Z,19.03
2019-04-07T01:59:02.617Z,17.10
2019-04-07T02:02:10.982Z,18.37
2019-04-07T02:05:02.026Z,18.27
2019-04-07T02:07:46.284Z,20.13
2019-04-07T02:10:30.686Z,19.60
2019-04-07T02:13:02.131Z,18.27
2019-04-07T02:15:42.142Z,18.90
2019-04-07T02:18:31.323Z,18.47
2019-04-07T02:21:18.396Z,18.70
2019-04-07T02:23:52.846Z,18.03
2019-04-07T02:26:30.132Z,17.77
2019-04-07T02:29:15.396Z,19.23
2019-04-07T02:32:06.166Z,17.37
2019-04-07T02:34:38.065Z,17.27
2019-04-07T02:37:13.905Z,17.37
2019-04-07T02:39:48.851Z,17.37
2019-04-07T02:42:39.519Z,16.87
2019-04-07T02:45:15.485Z,17.47
2019-04-07T02:47:47.712Z,18.47
2019-04-07T02:50:17.928Z,17.53
2019-04-07T02:53:08.032Z,17.97
2019-04-07T02:55:45.623Z,19.00
2019-04-07T02:58:32.768Z,19.40
2019-04-07T03:01:06.737Z,18.80
2019-04-07T03:03:46.511Z,18.13
2019-04-07T03:06:35.805Z,19.10
2019-04-07T03:08:57.153Z,17.00
2019-04-07T03:11:31.514Z,19.60
2019-04-07T03:14:09.074Z,19.47
2019-04-07T03:16:47.418Z,19.43
2019-04-07T03:19:22.481Z,19.00
2019-04-07T03:22:12.129Z,18.90
2019-04-07T03:24:51.658Z,18.63
2019-04-07T03:27:24.107Z,19.20
2019-04-07T03:29:56.832Z,19.27
2019-04-07T03:32:42.823Z,20.27
2019-04-07T03:35:14.595Z,19.13
2019-04-07T03:37:48.269Z,18.60
2019-04-07T03:40:35.533Z,19.63
2019-04-07T03:43:15.541Z,18.63
2019-04-07T03:45:55.364Z,19.07
2019-04-07T03:48:31.931Z,19.67
2019-04-07T03:51:10.920Z,18.43
2019-04-07T03:53:45.908Z,18.67
2019-04-07T03:56:16.331Z,19.60
2019-04-07T03:59:03.447Z,19.17
2019-04-07T04:01:51.834Z,18.30
2019-04-07T04:04:26.290Z,20.10
2019-04-07T04:07:00.127Z,19.23
2019-04-07T04:09:41.189Z,19.87
2019-04-07T04:12:28.124Z,18.30
2019-04-07T04:15:01.741Z,18.93
2019-04-07T04:17:34.776Z,18.50
2019-04-07T04:20:04.588Z,18.33
2019-04-07T04:22:33.295Z,18.60
2019-04-07T04:25:02.963Z,17.87
2019-04-07T04:27:35.220Z,18.43
2019-04-07T04:30:10.140Z,17.57
2019-04-07T04:32:39.405Z,17.93
2019-04-07T04:35:09.003Z,16.40
2019-04-07T04:37:46.577Z,17.83
2019-04-07T04:40:16.549Z,19.00
2019-04-07T04:42:45.411Z,17.67
2019-04-07T04:45:14.357Z,18.53
2019-04-07T04:47:43.010Z,17.63
2019-04-07T04:50:13.196Z,18.23
2019-04-07T04:52:45.562Z,17.77
2019-04-07T04:55:15.282Z,17.90
2019-04-07T04:57:44.454Z,17.90
2019-04-07T05:00:14.014Z,18.77
2019-04-07T05:02:48.239Z,17.93
2019-04-07T05:05:20.204Z,17.23
2019-04-07T05:07:57.672Z,17.63
2019-04-07T05:10:19.318Z,18.83
2019-04-07T05:12:48.243Z,17.63
2019-04-07T05:15:26.233Z,17.53
2019-04-07T05:17:54.948Z,18.33
2019-04-07T05:20:24.021Z,17.73
2019-04-07T05:22:55.346Z,17.33
2019-04-07T05:25:24.931Z,18.07
2019-04-07T05:27:55.850Z,17.63
2019-04-07T05:30:34.689Z,17.97
2019-04-07T05:33:05.588Z,16.47
2019-04-07T05:35:35.090Z,17.37
2019-04-07T05:38:06.608Z,17.67
2019-04-07T05:40:35.649Z,17.33
2019-04-07T05:43:07.173Z,16.93
2019-04-07T05:45:37.475Z,17.70
2019-04-07T05:48:08.187Z,17.67
2019-04-07T05:50:41.232Z,17.40
2019-04-07T05:53:14.288Z,17.13
2019-04-07T05:55:41.542Z,18.70
2019-04-07T05:58:15.278Z,17.67
2019-04-07T06:00:45.818Z,17.23
2019-04-07T06:03:14.340Z,17.80
2019-04-07T06:05:50.014Z,16.87
2019-04-07T06:08:27.074Z,19.13
2019-04-07T06:10:54.220Z,17.93
2019-04-07T06:13:23.711Z,17.70
2019-04-07T06:15:53.266Z,18.93
2019-04-07T06:18:22.942Z,18.00
2019-04-07T06:20:53.763Z,18.77
2019-04-07T06:23:25.321Z,18.97
2019-04-07T06:25:58.978Z,17.60
2019-04-07T06:28:26.769Z,17.47
2019-04-07T06:31:01.368Z,17.20
2019-04-07T06:33:32.058Z,17.10
2019-04-07T06:36:03.855Z,17.03
2019-04-07T06:38:40.946Z,18.07
2019-04-07T06:41:06.286Z,17.40
2019-04-07T06:43:40.165Z,16.47
2019-04-07T06:46:28.614Z,17.77
2019-04-07T06:49:13.804Z,18.43
2019-04-07T06:51:44.782Z,17.50
2019-04-07T06:54:32.003Z,17.73
2019-04-07T06:57:21.588Z,17.77
2019-04-07T07:00:00.177Z,17.00
2019-04-07T07:02:44.474Z,17.17
2019-04-07T07:05:36.239Z,17.90
2019-04-07T07:08:24.713Z,18.00
2019-04-07T07:10:59.301Z,17.43
2019-04-07T07:13:54.202Z,18.03
2019-04-07T07:16:31.780Z,18.30
2019-04-07T07:19:15.165Z,17.60
2019-04-07T07:21:48.843Z,18.40
2019-04-07T07:24:24.920Z,18.30
2019-04-07T07:26:56.996Z,17.53
2019-04-07T07:29:26.517Z,18.17
2019-04-07T07:32:03.909Z,18.27
2019-04-07T07:34:32.466Z,19.27
2019-04-07T07:37:03.984Z,18.60
2019-04-07T07:39:35.096Z,18.43
2019-04-07T07:42:07.196Z,18.27
2019-04-07T07:44:38.127Z,19.37
2019-04-07T07:47:06.905Z,19.30
2019-04-07T07:49:39.920Z,19.40
2019-04-07T07:52:07.207Z,20.37
2019-04-07T07:54:36.780Z,20.30
2019-04-07T07:57:05.615Z,20.83
2019-04-07T07:59:37.985Z,21.87
2019-04-07T08:02:06.190Z,20.87
2019-04-07T08:04:36.620Z,21.03
2019-04-07T08:07:15.458Z,21.20
2019-04-07T08:09:48.104Z,21.40
2019-04-07T08:12:17.361Z,21.07
2019-04-07T08:14:49.690Z,20.40
2019-04-07T08:17:17.252Z,21.10
2019-04-07T08:19:46.752Z,20.70
2019-04-07T08:22:27.433Z,19.70
2019-04-07T08:24:49.569Z,19.67
2019-04-07T08:27:26.838Z,16.70
2019-04-07T08:29:58.359Z,15.53
2019-04-07T08:32:30.867Z,14.87
2019-04-07T08:35:03.786Z,15.07
2019-04-07T08:37:32.372Z,15.10
2019-04-07T08:40:04.229Z,15.23
2019-04-07T08:42:33.962Z,13.03
2019-04-07T08:45:05.698Z,12.97
2019-04-07T08:47:49.923Z,13.20
2019-04-07T08:50:21.518Z,14.10
2019-04-07T08:52:52.199Z,14.43
2019-04-07T08:55:23.622Z,13.50
2019-04-07T08:57:53.686Z,12.17
2019-04-07T09:00:26.202Z,13.13
2019-04-07T09:03:03.723Z,12.40
2019-04-07T09:05:31.021Z,13.60
2019-04-07T09:08:05.590Z,12.50
2019-04-07T09:10:49.125Z,12.30
2019-04-07T09:13:15.707Z,12.10
2019-04-07T09:16:03.597Z,12.80
2019-04-07T09:19:00.694Z,13.40
2019-04-07T09:21:39.972Z,11.67
2019-04-07T09:24:07.217Z,11.77
2019-04-07T09:26:40.551Z,11.90
2019-04-07T09:29:12.763Z,12.63
2019-04-07T09:31:47.706Z,12.17
2019-04-07T09:34:38.440Z,13.27
2019-04-07T09:37:28.446Z,11.27
2019-04-07T09:40:05.740Z,12.73
2019-04-07T09:42:40.128Z,13.03
2019-04-07T09:45:15.499Z,11.30
2019-04-07T09:47:58.735Z,13.20
2019-04-07T09:50:48.196Z,11.73
2019-04-07T09:53:38.946Z,12.17
2019-04-07T09:56:11.935Z,11.70
2019-04-07T09:58:51.497Z,12.03
2019-04-07T10:01:33.000Z,11.80
2019-04-07T10:04:07.092Z,12.60
2019-04-07T10:06:56.521Z,12.73
2019-04-07T10:09:29.756Z,12.97
2019-04-07T10:12:06.370Z,12.10
2019-04-07T10:14:44.612Z,10.80
2019-04-07T10:17:19.728Z,11.13
2019-04-07T10:20:04.360Z,11.40
2019-04-07T10:22:40.063Z,12.10
2019-04-07T10:25:13.153Z,11.20
2019-04-07T10:27:45.094Z,10.27
2019-04-07T10:30:15.686Z,10.53
2019-04-07T10:33:03.963Z,9.47
2019-04-07T10:35:37.354Z,9.40
2019-04-07T10:38:13.218Z,8.63
2019-04-07T10:41:05.697Z,8.83
2019-04-07T10:47:07.213Z,9.07
2019-04-07T10:50:05.164Z,8.87
2019-04-07T10:52:39.493Z,9.10
2019-04-07T10:55:15.204Z,9.20
2019-04-07T10:58:05.465Z,10.40
2019-04-07T11:00:44.480Z,9.37
2019-04-07T11:03:19.579Z,9.47
2019-04-07T11:05:50.994Z,10.07
2019-04-07T11:08:26.752Z,10.40
2019-04-07T11:11:10.935Z,10.67
2019-04-07T11:13:47.156Z,9.70
2019-04-07T11:16:21.676Z,10.50
2019-04-07T11:18:58.573Z,10.80
2019-04-07T11:21:47.464Z,8.77
2019-04-07T11:24:42.428Z,9.83
2019-04-07T11:27:25.499Z,8.70
2019-04-07T11:30:08.138Z,9.87
2019-04-07T11:32:41.763Z,9.17
2019-04-07T11:35:31.059Z,9.83
2019-04-07T11:38:10.196Z,9.13
2019-04-07T11:40:50.142Z,9.47
2019-04-07T11:43:30.472Z,10.10
2019-04-07T11:46:03.532Z,8.27
2019-04-07T11:48:39.412Z,9.30
2019-04-07T11:51:24.295Z,9.23
2019-04-07T11:54:07.661Z,9.70
2019-04-07T12:00:03.841Z,9.03
2019-04-07T12:02:41.521Z,10.33
2019-04-07T12:05:20.189Z,9.33
2019-04-07T12:08:07.249Z,9.50
2019-04-07T12:11:02.786Z,9.67
2019-04-07T12:13:44.912Z,9.53
2019-04-07T12:16:21.924Z,9.57
2019-04-07T12:18:59.072Z,9.30
2019-04-07T12:21:37.188Z,9.33
2019-04-07T12:24:10.577Z,9.23
2019-04-07T12:27:02.331Z,9.53
2019-04-07T12:30:00.133Z,9.20
2019-04-07T12:35:52.132Z,8.30
2019-04-07T12:38:28.138Z,9.03
2019-04-07T12:41:22.233Z,9.10
2019-04-07T12:43:56.015Z,8.73
2019-04-07T12:46:29.908Z,8.80
2019-04-07T12:49:10.363Z,9.13
2019-04-07T12:51:52.415Z,8.03
2019-04-07T12:54:25.496Z,8.87
2019-04-07T12:57:14.697Z,8.77
2019-04-07T12:59:52.974Z,8.97
2019-04-07T13:02:41.416Z,8.67
2019-04-07T13:05:34.916Z,8.50
2019-04-07T13:08:25.706Z,9.20
2019-04-07T13:11:06.856Z,9.43
2019-04-07T13:14:03.749Z,9.80
2019-04-07T13:16:54.663Z,9.77
2019-04-07T13:19:35.284Z,9.57
2019-04-07T13:22:10.224Z,9.03
2019-04-07T13:24:53.848Z,9.30
2019-04-07T13:27:38.857Z,9.17
2019-04-07T13:30:32.607Z,9.47
2019-04-07T13:33:26.432Z,9.97
2019-04-07T13:36:01.771Z,9.47
2019-04-07T13:38:47.519Z,9.53
2019-04-07T13:41:45.912Z,10.27
2019-04-07T13:44:36.705Z,9.57
2019-04-07T13:47:12.929Z,8.87
2019-04-07T13:49:55.274Z,9.00
2019-04-07T13:52:35.025Z,9.90
2019-04-07T13:55:24.875Z,9.03
2019-04-07T13:57:59.482Z,8.90
2019-04-07T14:00:31.657Z,9.20
2019-04-07T14:03:11.340Z,9.27
2019-04-07T14:06:04.788Z,9.23
2019-04-07T14:08:53.247Z,9.10
2019-04-07T14:11:53.157Z,9.17
2019-04-07T14:14:28.268Z,9.20
2019-04-07T14:17:27.241Z,10.33
2019-04-07T14:20:02.060Z,9.73
2019-04-07T14:22:44.434Z,9.47
2019-04-07T14:25:27.815Z,8.90
2019-04-07T14:28:04.683Z,9.37
2019-04-07T14:30:56.468Z,8.87
2019-04-07T14:33:33.509Z,9.00
2019-04-07T14:36:25.037Z,8.90
2019-04-07T14:38:57.520Z,8.50
2019-04-07T14:41:38.515Z,9.13
2019-04-07T14:44:29.326Z,9.03
2019-04-07T14:47:12.829Z,10.07
2019-04-07T14:49:55.101Z,8.30
2019-04-07T14:52:47.201Z,9.77
2019-04-07T14:55:20.781Z,8.60
2019-04-07T14:58:01.273Z,8.97
2019-04-07T15:00:33.974Z,9.37
2019-04-07T15:03:30.666Z,9.43
2019-04-07T15:06:02.782Z,8.53
2019-04-07T15:08:43.129Z,9.20
2019-04-07T15:11:28.139Z,8.97
2019-04-07T15:14:00.720Z,9.87
2019-04-07T15:16:36.725Z,10.60
2019-04-07T15:19:09.623Z,10.40
2019-04-07T15:21:38.764Z,10.57
2019-04-07T15:24:08.610Z,10.37
2019-04-07T15:26:47.814Z,10.50
2019-04-07T15:29:22.109Z,11.13
2019-04-07T15:32:02.973Z,10.50
2019-04-07T15:34:39.571Z,10.67
2019-04-07T15:37:07.874Z,10.73
2019-04-07T15:39:42.760Z,10.50
2019-04-07T15:42:35.178Z,9.80
2019-04-07T15:45:13.641Z,10.03
2019-04-07T15:47:47.153Z,11.63
2019-04-07T15:50:22.632Z,9.80
2019-04-07T15:52:55.282Z,10.17
2019-04-07T15:55:42.411Z,10.53
2019-04-07T15:57:59.660Z,10.20
2019-04-07T16:00:32.331Z,10.33
2019-04-07T16:03:03.044Z,9.60
2019-04-07T16:05:41.096Z,9.70
2019-04-07T16:08:06.490Z,9.67
2019-04-07T16:10:35.994Z,10.07
2019-04-07T16:13:12.846Z,9.87
2019-04-07T16:15:51.000Z,8.90
2019-04-07T16:18:18.989Z,9.07
2019-04-07T16:20:49.541Z,9.10
2019-04-07T16:23:19.562Z,9.67
2019-04-07T16:25:49.266Z,9.70
2019-04-07T16:28:19.487Z,10.33
2019-04-07T16:30:56.293Z,10.00
2019-04-07T16:33:27.206Z,10.00
2019-04-07T16:36:00.066Z,10.30
2019-04-07T16:38:31.953Z,9.97
2019-04-07T16:41:04.701Z,10.73
2019-04-07T16:43:37.668Z,11.03
2019-04-07T16:46:08.947Z,10.27
2019-04-07T16:48:45.028Z,10.50
2019-04-07T16:51:14.458Z,12.20
2019-04-07T16:56:38.013Z,10.40
2019-04-07T16:59:10.496Z,10.90
2019-04-07T17:01:45.597Z,9.93
2019-04-07T17:04:17.642Z,10.33
2019-04-07T17:06:59.563Z,9.80
2019-04-07T17:09:28.240Z,10.17
2019-04-07T17:12:09.512Z,10.67
2019-04-07T17:14:41.189Z,9.90
2019-04-07T17:17:15.716Z,10.17
2019-04-07T17:19:49.219Z,10.73
2019-04-07T17:22:23.139Z,12.07
2019-04-07T17:24:53.239Z,15.57
2019-04-07T17:27:24.698Z,15.57
2019-04-07T17:29:55.307Z,20.80
2019-04-07T17:32:25.867Z,21.53
2019-04-07T17:34:56.801Z,22.57
2019-04-07T17:37:30.906Z,19.50
2019-04-07T17:40:05.579Z,16.07
2019-04-07T17:42:44.007Z,15.73
2019-04-07T17:45:22.231Z,16.07
2019-04-07T17:48:06.129Z,13.87
2019-04-07T17:50:53.378Z,13.57
2019-04-07T17:53:30.586Z,12.67
2019-04-07T17:56:10.879Z,13.10
2019-04-07T17:59:00.299Z,12.50
2019-04-07T18:01:35.689Z,16.87
2019-04-07T18:04:13.949Z,17.13
2019-04-07T18:06:50.656Z,18.83
2019-04-07T18:09:37.266Z,17.57
2019-04-07T18:12:25.907Z,17.47
2019-04-07T18:15:13.600Z,15.50
2019-04-07T18:17:51.800Z,16.80
2019-04-07T18:20:32.716Z,15.60
2019-04-07T18:23:06.261Z,15.37
2019-04-07T18:25:36.873Z,16.10
2019-04-07T18:28:16.405Z,14.53
2019-04-07T18:31:04.325Z,15.83
2019-04-07T18:33:44.510Z,15.83
2019-04-07T18:36:36.003Z,16.33
2019-04-07T18:39:26.014Z,15.70
2019-04-07T18:41:57.191Z,15.23
2019-04-07T18:44:46.723Z,14.70
2019-04-07T18:47:33.718Z,15.27
2019-04-07T18:50:25.751Z,15.67
2019-04-07T18:53:18.831Z,17.50
2019-04-07T18:55:53.717Z,16.43
2019-04-07T18:58:31.008Z,15.90
2019-04-07T19:01:13.753Z,16.33
2019-04-07T19:03:45.299Z,15.83
2019-04-07T19:06:16.652Z,16.43
2019-04-07T19:09:05.245Z,17.50
2019-04-07T19:11:41.633Z,20.60
2019-04-07T19:14:38.291Z,21.03
2019-04-07T19:16:58.999Z,21.87
2019-04-07T19:19:46.600Z,22.83
2019-04-07T19:22:36.959Z,19.13
2019-04-07T19:25:20.242Z,18.40
2019-04-07T19:27:54.786Z,19.47
2019-04-07T19:30:43.702Z,19.70
2019-04-07T19:33:29.392Z,20.03
2019-04-07T19:36:11.898Z,20.53
2019-04-07T19:38:58.509Z,19.47
2019-04-07T19:41:31.487Z,20.13
2019-04-07T19:44:03.986Z,20.87
2019-04-07T19:46:52.814Z,20.33
2019-04-07T19:49:28.803Z,20.87
2019-04-07T19:52:10.674Z,20.83
2019-04-07T19:54:50.245Z,20.63
2019-04-07T19:57:44.898Z,21.10
2019-04-07T20:00:24.284Z,22.93
2019-04-07T20:03:13.350Z,20.87
2019-04-07T20:05:43.977Z,21.33
2019-04-07T20:08:20.242Z,20.10
2019-04-07T20:10:55.836Z,19.50
2019-04-07T20:13:44.565Z,21.20
2019-04-07T20:16:26.669Z,19.27
2019-04-07T20:19:01.030Z,19.87
2019-04-07T20:21:40.788Z,20.47
2019-04-07T20:24:20.011Z,21.10
2019-04-07T20:27:05.314Z,21.53
2019-04-07T20:29:58.841Z,21.60
2019-04-07T20:33:02.029Z,21.00
2019-04-07T20:35:56.121Z,20.53
2019-04-07T20:41:45.188Z,22.20
2019-04-07T20:44:30.762Z,21.83
2019-04-07T20:47:07.868Z,25.63
2019-04-07T20:52:42.567Z,23.83
2019-04-07T20:55:36.614Z,19.87
2019-04-07T20:58:43.751Z,22.50
2019-04-07T21:01:17.299Z,23.63
2019-04-07T21:03:51.944Z,24.03
2019-04-07T21:06:31.725Z,23.83
2019-04-07T21:09:25.652Z,26.67
2019-04-07T21:11:57.474Z,27.27
2019-04-07T21:14:47.370Z,24.93
2019-04-07T21:17:31.231Z,25.27
2019-04-07T21:20:05.378Z,25.73
2019-04-07T21:22:40.092Z,25.73
2019-04-07T21:25:27.592Z,25.47
2019-04-07T21:28:05.979Z,26.63
2019-04-07T21:30:39.999Z,29.00
2019-04-07T21:33:15.269Z,31.43
2019-04-07T21:35:47.922Z,31.20
2019-04-07T21:38:26.126Z,33.43
2019-04-07T21:41:03.977Z,26.27
2019-04-07T21:43:57.128Z,27.87
2019-04-07T21:46:33.034Z,27.60
2019-04-07T21:49:23.167Z,28.10
2019-04-07T21:51:56.871Z,38.40
2019-04-07T21:54:34.604Z,33.90
2019-04-07T21:57:09.922Z,31.23
2019-04-07T21:59:59.057Z,30.63
2019-04-07T22:02:48.349Z,31.63
2019-04-07T22:05:30.582Z,31.20
2019-04-07T22:08:17.303Z,34.77
2019-04-07T22:10:43.722Z,46.73
2019-04-07T22:13:20.205Z,48.53
2019-04-07T22:15:56.329Z,48.37
2019-04-07T22:18:23.606Z,48.03
2019-04-07T22:20:57.571Z,47.83
2019-04-07T22:23:30.734Z,47.87
2019-04-07T22:28:53.635Z,46.60
2019-04-07T22:31:27.169Z,48.23
2019-04-07T22:34:00.987Z,52.70
2019-04-07T22:36:33.571Z,51.43
2019-04-07T22:39:07.773Z,50.40
2019-04-07T22:41:41.791Z,47.17
2019-04-07T22:44:11.425Z,47.20
2019-04-07T22:46:40.182Z,46.33
2019-04-07T22:49:09.360Z,48.80
2019-04-07T22:51:43.082Z,46.87
2019-04-07T22:54:14.056Z,51.87
2019-04-07T22:56:46.683Z,60.43
2019-04-07T22:59:23.945Z,52.13
2019-04-07T23:01:53.578Z,49.30
2019-04-07T23:04:27.927Z,46.27
2019-04-07T23:06:59.187Z,46.90
2019-04-07T23:09:30.043Z,43.67
2019-04-07T23:12:05.573Z,45.50
2019-04-07T23:14:35.994Z,43.90
2019-04-07T23:17:10.635Z,43.47
2019-04-07T23:19:42.332Z,45.93
2019-04-07T23:22:15.916Z,52.30
2019-04-07T23:30:31.343Z,53.67
2019-04-07T23:33:02.187Z,52.13
2019-04-07T23:35:32.986Z,49.33
2019-04-07T23:38:04.564Z,45.20
2019-04-07T23:40:35.464Z,47.17
2019-04-07T23:43:04.801Z,48.27
2019-04-07T23:45:38.780Z,49.17
2019-04-07T23:50:58.183Z,46.73
2019-04-07T23:54:07.556Z,44.23
2019-04-07T23:56:42.173Z,43.50
2019-04-07T23:59:18.709Z,44.77
